X  Lukk Metar værinformasjon om luftfart     EHAM Amsterdam Airport Schiphol
Temperatur
14°C Temperatur
11°C Duggpunkt
82% Luftfuktighet



Vind
4 M/S
9 MPT
14 KM/T
8 KNP



170°
S
Nåværende forhold

Klart Klart
Trykk 1005.76 (hPa) - 29.7 (inHg)
Sikt 6 (mil) - 9.7 (km)
Flyplass
Flyplass-kode EHAM

Plassering: Amsterdam Airport Schiphol
Avstand: 2 (km)

Metar:
EHAM 140425Z 17008KT 140V200 CAVOK 14/11 Q1006 NOSIG

Tid: 14-06-2024 06:25 CEST